sensor_id;sensor_type;location;lat;lon;timestamp;pressure;altitude;pressure_sealevel;temperature;humidity
49063;BME280;34876;51.464;-0.150;2022-07-23T00:03:42;101846.19;;;25.22;42.08
49063;BME280;34876;51.464;-0.150;2022-07-23T00:06:11;101846.54;;;25.23;42.06
49063;BME280;34876;51.464;-0.150;2022-07-23T00:08:40;101850.20;;;25.22;42.07
49063;BME280;34876;51.464;-0.150;2022-07-23T00:11:10;101848.23;;;25.21;42.08
49063;BME280;34876;51.464;-0.150;2022-07-23T00:13:39;101843.30;;;25.20;42.10
49063;BME280;34876;51.464;-0.150;2022-07-23T00:16:09;101842.65;;;25.22;42.07
49063;BME280;34876;51.464;-0.150;2022-07-23T00:18:46;101838.87;;;25.20;42.10
49063;BME280;34876;51.464;-0.150;2022-07-23T00:21:22;101842.37;;;25.21;42.08
49063;BME280;34876;51.464;-0.150;2022-07-23T00:23:51;101846.95;;;25.21;42.08
49063;BME280;34876;51.464;-0.150;2022-07-23T00:26:20;101853.73;;;25.20;42.09
49063;BME280;34876;51.464;-0.150;2022-07-23T00:28:50;101855.96;;;25.20;42.09
49063;BME280;34876;51.464;-0.150;2022-07-23T00:31:21;101856.20;;;25.20;42.05
49063;BME280;34876;51.464;-0.150;2022-07-23T00:33:51;101855.18;;;25.20;42.04
49063;BME280;34876;51.464;-0.150;2022-07-23T00:36:21;101853.76;;;25.20;42.05
49063;BME280;34876;51.464;-0.150;2022-07-23T00:38:51;101850.36;;;25.21;42.02
49063;BME280;34876;51.464;-0.150;2022-07-23T00:41:21;101846.70;;;25.19;42.06
49063;BME280;34876;51.464;-0.150;2022-07-23T00:43:50;101840.09;;;25.18;42.07
49063;BME280;34876;51.464;-0.150;2022-07-23T00:46:21;101833.90;;;25.19;42.05
49063;BME280;34876;51.464;-0.150;2022-07-23T00:48:50;101830.78;;;25.18;42.06
49063;BME280;34876;51.464;-0.150;2022-07-23T00:51:21;101825.75;;;25.16;42.08
49063;BME280;34876;51.464;-0.150;2022-07-23T00:53:50;101827.72;;;25.14;42.15
49063;BME280;34876;51.464;-0.150;2022-07-23T00:56:20;101822.72;;;25.16;42.10
49063;BME280;34876;51.464;-0.150;2022-07-23T00:58:50;101821.88;;;25.15;42.12
49063;BME280;34876;51.464;-0.150;2022-07-23T01:01:19;101822.56;;;25.16;42.09
49063;BME280;34876;51.464;-0.150;2022-07-23T01:03:49;101823.57;;;25.14;42.13
49063;BME280;34876;51.464;-0.150;2022-07-23T01:06:18;101825.07;;;25.15;42.11
49063;BME280;34876;51.464;-0.150;2022-07-23T01:08:48;101822.72;;;25.13;42.14
49063;BME280;34876;51.464;-0.150;2022-07-23T01:11:18;101818.82;;;25.12;42.14
49063;BME280;34876;51.464;-0.150;2022-07-23T01:13:48;101817.40;;;25.15;42.08
49063;BME280;34876;51.464;-0.150;2022-07-23T01:16:18;101817.15;;;25.15;42.05
49063;BME280;34876;51.464;-0.150;2022-07-23T01:18:48;101817.55;;;25.14;42.08
49063;BME280;34876;51.464;-0.150;2022-07-23T01:21:18;101819.08;;;25.16;42.01
49063;BME280;34876;51.464;-0.150;2022-07-23T01:23:47;101818.77;;;25.15;42.05
49063;BME280;34876;51.464;-0.150;2022-07-23T01:26:17;101822.42;;;25.14;42.04
49063;BME280;34876;51.464;-0.150;2022-07-23T01:28:46;101824.94;;;25.14;42.04
49063;BME280;34876;51.464;-0.150;2022-07-23T01:31:17;101827.53;;;25.14;42.02
49063;BME280;34876;51.464;-0.150;2022-07-23T01:33:46;101827.31;;;25.14;42.02
49063;BME280;34876;51.464;-0.150;2022-07-23T01:36:15;101824.32;;;25.12;42.05
49063;BME280;34876;51.464;-0.150;2022-07-23T01:38:45;101826.18;;;25.11;42.05
49063;BME280;34876;51.464;-0.150;2022-07-23T01:41:15;101829.60;;;25.12;42.04
49063;BME280;34876;51.464;-0.150;2022-07-23T01:43:45;101830.12;;;25.12;42.04
49063;BME280;34876;51.464;-0.150;2022-07-23T01:46:16;101831.58;;;25.10;42.08
49063;BME280;34876;51.464;-0.150;2022-07-23T01:48:45;101833.10;;;25.09;42.10
49063;BME280;34876;51.464;-0.150;2022-07-23T01:51:15;101830.95;;;25.10;42.08
49063;BME280;34876;51.464;-0.150;2022-07-23T01:53:45;101824.35;;;25.10;42.06
49063;BME280;34876;51.464;-0.150;2022-07-23T01:56:15;101823.92;;;25.10;42.06
49063;BME280;34876;51.464;-0.150;2022-07-23T01:58:44;101825.77;;;25.09;42.05
49063;BME280;34876;51.464;-0.150;2022-07-23T02:01:14;101820.34;;;25.08;42.06
49063;BME280;34876;51.464;-0.150;2022-07-23T02:03:44;101819.62;;;25.09;42.04
49063;BME280;34876;51.464;-0.150;2022-07-23T02:06:13;101818.89;;;25.09;42.05
49063;BME280;34876;51.464;-0.150;2022-07-23T02:08:42;101818.44;;;25.07;42.08
49063;BME280;34876;51.464;-0.150;2022-07-23T02:11:12;101821.52;;;25.06;42.08
49063;BME280;34876;51.464;-0.150;2022-07-23T02:13:41;101821.74;;;25.07;42.05
49063;BME280;34876;51.464;-0.150;2022-07-23T02:16:11;101821.64;;;25.07;42.05
49063;BME280;34876;51.464;-0.150;2022-07-23T02:18:41;101821.59;;;25.06;42.05
49063;BME280;34876;51.464;-0.150;2022-07-23T02:21:11;101818.07;;;25.06;42.06
49063;BME280;34876;51.464;-0.150;2022-07-23T02:23:40;101826.13;;;25.06;42.08
49063;BME280;34876;51.464;-0.150;2022-07-23T02:26:09;101827.10;;;25.05;42.05
49063;BME280;34876;51.464;-0.150;2022-07-23T02:28:38;101827.71;;;25.06;42.03
49063;BME280;34876;51.464;-0.150;2022-07-23T02:31:07;101824.31;;;25.06;42.04
49063;BME280;34876;51.464;-0.150;2022-07-23T02:33:36;101825.51;;;25.05;42.05
49063;BME280;34876;51.464;-0.150;2022-07-23T02:36:06;101830.03;;;25.05;42.05
49063;BME280;34876;51.464;-0.150;2022-07-23T02:38:36;101829.73;;;25.03;42.09
49063;BME280;34876;51.464;-0.150;2022-07-23T02:41:05;101830.74;;;25.02;42.09
49063;BME280;34876;51.464;-0.150;2022-07-23T02:43:35;101832.86;;;25.02;42.09
49063;BME280;34876;51.464;-0.150;2022-07-23T02:46:04;101834.38;;;25.02;42.08
49063;BME280;34876;51.464;-0.150;2022-07-23T02:48:34;101831.11;;;25.01;42.10
49063;BME280;34876;51.464;-0.150;2022-07-23T02:51:04;101828.69;;;25.02;42.09
49063;BME280;34876;51.464;-0.150;2022-07-23T02:53:33;101827.85;;;25.02;42.08
49063;BME280;34876;51.464;-0.150;2022-07-23T02:56:03;101827.00;;;25.03;42.06
49063;BME280;34876;51.464;-0.150;2022-07-23T02:58:33;101830.94;;;25.02;42.08
49063;BME280;34876;51.464;-0.150;2022-07-23T03:01:03;101831.74;;;25.01;42.06
49063;BME280;34876;51.464;-0.150;2022-07-23T03:03:33;101831.00;;;25.01;42.07
49063;BME280;34876;51.464;-0.150;2022-07-23T03:06:02;101827.29;;;25.00;42.09
49063;BME280;34876;51.464;-0.150;2022-07-23T03:08:32;101822.79;;;25.00;42.08
49063;BME280;34876;51.464;-0.150;2022-07-23T03:11:02;101818.68;;;25.00;42.06
49063;BME280;34876;51.464;-0.150;2022-07-23T03:13:32;101817.17;;;25.00;42.08
49063;BME280;34876;51.464;-0.150;2022-07-23T03:16:01;101821.09;;;24.99;42.11
49063;BME280;34876;51.464;-0.150;2022-07-23T03:18:30;101825.55;;;25.00;42.07
49063;BME280;34876;51.464;-0.150;2022-07-23T03:21:01;101826.70;;;24.99;42.09
49063;BME280;34876;51.464;-0.150;2022-07-23T03:23:31;101828.86;;;25.00;42.06
49063;BME280;34876;51.464;-0.150;2022-07-23T03:26:02;101828.79;;;25.00;42.08
49063;BME280;34876;51.464;-0.150;2022-07-23T03:28:31;101830.79;;;25.00;42.07
49063;BME280;34876;51.464;-0.150;2022-07-23T03:31:01;101830.48;;;25.01;42.06
49063;BME280;34876;51.464;-0.150;2022-07-23T03:33:30;101827.85;;;25.00;42.06
49063;BME280;34876;51.464;-0.150;2022-07-23T03:36:01;101823.73;;;24.99;42.09
49063;BME280;34876;51.464;-0.150;2022-07-23T03:38:29;101820.60;;;24.98;42.09
49063;BME280;34876;51.464;-0.150;2022-07-23T03:40:59;101818.95;;;24.98;42.14
49063;BME280;34876;51.464;-0.150;2022-07-23T03:43:28;101810.97;;;24.99;42.11
49063;BME280;34876;51.464;-0.150;2022-07-23T03:45:58;101808.16;;;24.99;42.08
49063;BME280;34876;51.464;-0.150;2022-07-23T03:48:33;101813.23;;;24.99;42.09
49063;BME280;34876;51.464;-0.150;2022-07-23T03:51:03;101812.52;;;25.00;42.05
49063;BME280;34876;51.464;-0.150;2022-07-23T03:53:33;101809.17;;;24.98;42.10
49063;BME280;34876;51.464;-0.150;2022-07-23T03:56:04;101803.98;;;24.98;42.10
49063;BME280;34876;51.464;-0.150;2022-07-23T03:58:32;101799.96;;;24.98;42.09
49063;BME280;34876;51.464;-0.150;2022-07-23T04:01:03;101799.79;;;24.98;42.11
49063;BME280;34876;51.464;-0.150;2022-07-23T04:03:33;101798.35;;;24.98;42.11
49063;BME280;34876;51.464;-0.150;2022-07-23T04:06:03;101802.78;;;24.98;42.10
49063;BME280;34876;51.464;-0.150;2022-07-23T04:08:33;101804.31;;;24.98;42.12
49063;BME280;34876;51.464;-0.150;2022-07-23T04:11:04;101802.84;;;24.98;42.10
49063;BME280;34876;51.464;-0.150;2022-07-23T04:13:34;101802.44;;;24.98;42.11
49063;BME280;34876;51.464;-0.150;2022-07-23T04:16:05;101810.93;;;24.97;42.15
49063;BME280;34876;51.464;-0.150;2022-07-23T04:18:35;101809.47;;;24.97;42.14
49063;BME280;34876;51.464;-0.150;2022-07-23T04:21:06;101813.27;;;24.96;42.16
49063;BME280;34876;51.464;-0.150;2022-07-23T04:23:36;101814.29;;;24.96;42.18
49063;BME280;34876;51.464;-0.150;2022-07-23T04:26:05;101817.57;;;24.96;42.16
49063;BME280;34876;51.464;-0.150;2022-07-23T04:28:34;101814.09;;;24.95;42.21
49063;BME280;34876;51.464;-0.150;2022-07-23T04:31:04;101816.37;;;24.96;42.20
49063;BME280;34876;51.464;-0.150;2022-07-23T04:33:34;101813.54;;;24.95;42.21
49063;BME280;34876;51.464;-0.150;2022-07-23T04:36:04;101815.04;;;24.94;42.22
49063;BME280;34876;51.464;-0.150;2022-07-23T04:38:34;101814.68;;;24.95;42.22
49063;BME280;34876;51.464;-0.150;2022-07-23T04:41:04;101813.48;;;24.94;42.24
49063;BME280;34876;51.464;-0.150;2022-07-23T04:43:34;101811.98;;;24.94;42.22
49063;BME280;34876;51.464;-0.150;2022-07-23T04:46:04;101809.78;;;24.94;42.24
49063;BME280;34876;51.464;-0.150;2022-07-23T04:48:34;101811.04;;;24.93;42.25
49063;BME280;34876;51.464;-0.150;2022-07-23T04:51:05;101809.86;;;24.93;42.26
49063;BME280;34876;51.464;-0.150;2022-07-23T04:53:37;101812.15;;;24.93;42.27
49063;BME280;34876;51.464;-0.150;2022-07-23T04:56:07;101810.12;;;24.94;42.26
49063;BME280;34876;51.464;-0.150;2022-07-23T04:58:37;101808.38;;;24.93;42.25
49063;BME280;34876;51.464;-0.150;2022-07-23T05:01:08;101808.31;;;24.94;42.25
49063;BME280;34876;51.464;-0.150;2022-07-23T05:03:38;101809.35;;;25.12;41.85
49063;BME280;34876;51.464;-0.150;2022-07-23T05:06:08;101810.99;;;25.10;41.86
49063;BME280;34876;51.464;-0.150;2022-07-23T05:08:38;101818.72;;;24.99;42.15
49063;BME280;34876;51.464;-0.150;2022-07-23T05:11:07;101827.29;;;24.99;42.13
49063;BME280;34876;51.464;-0.150;2022-07-23T05:13:37;101828.55;;;24.99;42.12
49063;BME280;34876;51.464;-0.150;2022-07-23T05:16:08;101830.04;;;24.99;42.15
49063;BME280;34876;51.464;-0.150;2022-07-23T05:18:38;101832.63;;;25.00;42.11
49063;BME280;34876;51.464;-0.150;2022-07-23T05:21:08;101837.34;;;25.00;42.11
49063;BME280;34876;51.464;-0.150;2022-07-23T05:23:36;101835.88;;;25.01;42.09
49063;BME280;34876;51.464;-0.150;2022-07-23T05:26:05;101839.73;;;25.01;42.09
49063;BME280;34876;51.464;-0.150;2022-07-23T05:28:34;101841.41;;;25.05;42.03
49063;BME280;34876;51.464;-0.150;2022-07-23T05:31:04;101844.51;;;25.05;42.03
49063;BME280;34876;51.464;-0.150;2022-07-23T05:33:33;101844.37;;;25.03;42.06
49063;BME280;34876;51.464;-0.150;2022-07-23T05:36:03;101840.51;;;25.05;42.01
49063;BME280;34876;51.464;-0.150;2022-07-23T05:38:33;101837.60;;;25.09;41.94
49063;BME280;34876;51.464;-0.150;2022-07-23T05:41:02;101831.72;;;25.05;42.03
49063;BME280;34876;51.464;-0.150;2022-07-23T05:43:32;101829.94;;;25.04;42.05
49063;BME280;34876;51.464;-0.150;2022-07-23T05:46:01;101828.50;;;25.04;42.08
49063;BME280;34876;51.464;-0.150;2022-07-23T05:48:31;101826.29;;;25.07;42.03
49063;BME280;34876;51.464;-0.150;2022-07-23T05:51:00;101829.53;;;25.10;41.96
49063;BME280;34876;51.464;-0.150;2022-07-23T05:53:30;101831.29;;;25.07;42.03
49063;BME280;34876;51.464;-0.150;2022-07-23T05:56:00;101833.01;;;25.08;42.03
49063;BME280;34876;51.464;-0.150;2022-07-23T05:58:30;101833.80;;;25.07;42.03
49063;BME280;34876;51.464;-0.150;2022-07-23T06:00:59;101830.48;;;25.07;42.02
49063;BME280;34876;51.464;-0.150;2022-07-23T06:03:29;101826.53;;;25.13;41.92
49063;BME280;34876;51.464;-0.150;2022-07-23T06:05:58;101824.97;;;25.12;41.96
49063;BME280;34876;51.464;-0.150;2022-07-23T06:08:28;101825.20;;;25.13;41.94
49063;BME280;34876;51.464;-0.150;2022-07-23T06:10:57;101826.61;;;25.15;41.87
49063;BME280;34876;51.464;-0.150;2022-07-23T06:13:27;101821.64;;;25.14;41.92
49063;BME280;34876;51.464;-0.150;2022-07-23T06:15:57;101823.67;;;25.14;41.91
49063;BME280;34876;51.464;-0.150;2022-07-23T06:18:25;101820.50;;;25.16;41.88
49063;BME280;34876;51.464;-0.150;2022-07-23T06:20:55;101824.87;;;25.18;41.82
49063;BME280;34876;51.464;-0.150;2022-07-23T06:23:24;101821.33;;;25.22;41.72
49063;BME280;34876;51.464;-0.150;2022-07-23T06:25:54;101817.74;;;25.23;41.71
49063;BME280;34876;51.464;-0.150;2022-07-23T06:28:23;101816.68;;;25.16;41.90
49063;BME280;34876;51.464;-0.150;2022-07-23T06:30:53;101818.30;;;25.18;41.85
49063;BME280;34876;51.464;-0.150;2022-07-23T06:33:22;101824.08;;;25.26;41.66
49063;BME280;34876;51.464;-0.150;2022-07-23T06:35:52;101826.86;;;25.51;41.09
49063;BME280;34876;51.464;-0.150;2022-07-23T06:38:20;101824.94;;;25.79;40.44
49063;BME280;34876;51.464;-0.150;2022-07-23T06:40:49;101828.33;;;25.64;40.77
49063;BME280;34876;51.464;-0.150;2022-07-23T06:43:19;101830.68;;;25.52;41.06
49063;BME280;34876;51.464;-0.150;2022-07-23T06:45:48;101831.41;;;25.45;41.21
49063;BME280;34876;51.464;-0.150;2022-07-23T06:48:17;101840.24;;;25.44;41.24
49063;BME280;34876;51.464;-0.150;2022-07-23T06:50:46;101837.85;;;25.43;41.27
49063;BME280;34876;51.464;-0.150;2022-07-23T06:53:15;101838.28;;;25.40;41.33
49063;BME280;34876;51.464;-0.150;2022-07-23T06:55:45;101840.12;;;25.41;41.32
49063;BME280;34876;51.464;-0.150;2022-07-23T06:58:14;101839.00;;;25.42;41.30
49063;BME280;34876;51.464;-0.150;2022-07-23T07:00:42;101841.51;;;25.39;41.34
49063;BME280;34876;51.464;-0.150;2022-07-23T07:03:12;101848.97;;;25.35;41.45
49063;BME280;34876;51.464;-0.150;2022-07-23T07:05:41;101845.80;;;25.34;41.50
49063;BME280;34876;51.464;-0.150;2022-07-23T07:08:11;101840.52;;;25.39;41.38
49063;BME280;34876;51.464;-0.150;2022-07-23T07:10:41;101844.17;;;25.38;41.38
49063;BME280;34876;51.464;-0.150;2022-07-23T07:13:10;101845.37;;;25.42;41.30
49063;BME280;34876;51.464;-0.150;2022-07-23T07:15:39;101846.68;;;25.47;41.19
49063;BME280;34876;51.464;-0.150;2022-07-23T07:18:09;101842.69;;;25.45;41.24
49063;BME280;34876;51.464;-0.150;2022-07-23T07:20:39;101841.52;;;25.51;41.13
49063;BME280;34876;51.464;-0.150;2022-07-23T07:23:09;101840.82;;;25.53;41.09
49063;BME280;34876;51.464;-0.150;2022-07-23T07:25:38;101839.82;;;25.53;41.07
49063;BME280;34876;51.464;-0.150;2022-07-23T07:28:08;101839.24;;;25.52;41.10
49063;BME280;34876;51.464;-0.150;2022-07-23T07:30:38;101842.24;;;25.53;41.10
49063;BME280;34876;51.464;-0.150;2022-07-23T07:33:07;101842.87;;;25.54;41.04
49063;BME280;34876;51.464;-0.150;2022-07-23T07:35:37;101846.38;;;25.54;41.06
49063;BME280;34876;51.464;-0.150;2022-07-23T07:38:06;101846.42;;;25.48;41.22
49063;BME280;34876;51.464;-0.150;2022-07-23T07:40:35;101848.52;;;25.44;41.39
49063;BME280;34876;51.464;-0.150;2022-07-23T07:43:04;101850.38;;;25.57;41.01
49063;BME280;34876;51.464;-0.150;2022-07-23T07:45:34;101851.66;;;25.61;40.91
49063;BME280;34876;51.464;-0.150;2022-07-23T07:48:03;101849.77;;;25.62;40.91
49063;BME280;34876;51.464;-0.150;2022-07-23T07:50:33;101852.97;;;25.63;40.88
49063;BME280;34876;51.464;-0.150;2022-07-23T07:53:02;101846.46;;;25.75;40.63
49063;BME280;34876;51.464;-0.150;2022-07-23T07:55:32;101840.31;;;25.78;40.55
49063;BME280;34876;51.464;-0.150;2022-07-23T07:58:02;101838.49;;;25.80;40.50
49063;BME280;34876;51.464;-0.150;2022-07-23T08:00:32;101838.87;;;25.77;40.55
49063;BME280;34876;51.464;-0.150;2022-07-23T08:03:02;101837.02;;;25.86;40.33
49063;BME280;34876;51.464;-0.150;2022-07-23T08:05:31;101843.08;;;25.78;40.52
49063;BME280;34876;51.464;-0.150;2022-07-23T08:08:01;101842.19;;;25.78;40.49
49063;BME280;34876;51.464;-0.150;2022-07-23T08:10:31;101841.68;;;25.76;40.53
49063;BME280;34876;51.464;-0.150;2022-07-23T08:13:01;101842.29;;;25.82;40.37
49063;BME280;34876;51.464;-0.150;2022-07-23T08:15:30;101839.52;;;25.80;40.41
49063;BME280;34876;51.464;-0.150;2022-07-23T08:18:00;101845.01;;;26.12;39.69
49063;BME280;34876;51.464;-0.150;2022-07-23T08:20:30;101849.25;;;26.44;38.99
49063;BME280;34876;51.464;-0.150;2022-07-23T08:23:03;101850.54;;;26.11;39.67
49063;BME280;34876;51.464;-0.150;2022-07-23T08:25:36;101850.82;;;25.95;40.02
49063;BME280;34876;51.464;-0.150;2022-07-23T08:28:09;101845.61;;;25.90;40.09
49063;BME280;34876;51.464;-0.150;2022-07-23T08:30:39;101845.68;;;25.94;40.01
49063;BME280;34876;51.464;-0.150;2022-07-23T08:33:09;101848.78;;;25.83;40.24
49063;BME280;34876;51.464;-0.150;2022-07-23T08:35:41;101844.08;;;25.89;40.02
49063;BME280;34876;51.464;-0.150;2022-07-23T08:38:12;101841.26;;;25.95;39.14
49063;BME280;34876;51.464;-0.150;2022-07-23T08:40:44;101834.06;;;25.86;40.13
49063;BME280;34876;51.464;-0.150;2022-07-23T08:43:15;101832.39;;;25.83;40.17
49063;BME280;34876;51.464;-0.150;2022-07-23T08:45:47;101833.20;;;25.87;40.09
49063;BME280;34876;51.464;-0.150;2022-07-23T08:48:18;101834.47;;;25.88;40.06
49063;BME280;34876;51.464;-0.150;2022-07-23T08:50:50;101833.68;;;25.84;40.14
49063;BME280;34876;51.464;-0.150;2022-07-23T08:53:22;101838.45;;;25.76;40.34
49063;BME280;34876;51.464;-0.150;2022-07-23T08:55:53;101837.04;;;25.61;40.68
49063;BME280;34876;51.464;-0.150;2022-07-23T08:58:23;101840.23;;;25.65;40.61
49063;BME280;34876;51.464;-0.150;2022-07-23T09:00:53;101841.67;;;26.07;39.70
49063;BME280;34876;51.464;-0.150;2022-07-23T09:03:25;101834.37;;;26.58;37.12
49063;BME280;34876;51.464;-0.150;2022-07-23T09:05:55;101835.03;;;26.67;38.29
49063;BME280;34876;51.464;-0.150;2022-07-23T09:08:25;101837.59;;;26.18;39.04
49063;BME280;34876;51.464;-0.150;2022-07-23T09:10:56;101840.07;;;26.06;37.79
49063;BME280;34876;51.464;-0.150;2022-07-23T09:13:30;101841.83;;;25.93;39.76
49063;BME280;34876;51.464;-0.150;2022-07-23T09:16:07;101841.69;;;26.10;39.47
49063;BME280;34876;51.464;-0.150;2022-07-23T09:18:40;101837.53;;;25.90;39.70
49063;BME280;34876;51.464;-0.150;2022-07-23T09:21:15;101841.23;;;25.92;39.77
49063;BME280;34876;51.464;-0.150;2022-07-23T09:23:48;101842.60;;;26.02;37.20
49063;BME280;34876;51.464;-0.150;2022-07-23T09:26:22;101843.33;;;26.07;39.47
49063;BME280;34876;51.464;-0.150;2022-07-23T09:29:00;101837.27;;;25.99;39.57
49063;BME280;34876;51.464;-0.150;2022-07-23T09:31:34;101836.99;;;25.99;38.55
49063;BME280;34876;51.464;-0.150;2022-07-23T09:34:09;101840.64;;;25.83;38.81
49063;BME280;34876;51.464;-0.150;2022-07-23T09:36:41;101848.50;;;25.86;39.73
49063;BME280;34876;51.464;-0.150;2022-07-23T09:39:11;101847.93;;;26.37;38.11
49063;BME280;34876;51.464;-0.150;2022-07-23T09:41:44;101846.39;;;26.72;37.58
49063;BME280;34876;51.464;-0.150;2022-07-23T09:44:15;101850.32;;;26.85;37.58
49063;BME280;34876;51.464;-0.150;2022-07-23T09:46:47;101852.61;;;26.83;37.49
49063;BME280;34876;51.464;-0.150;2022-07-23T09:49:19;101851.93;;;26.98;37.32
49063;BME280;34876;51.464;-0.150;2022-07-23T09:51:52;101847.25;;;27.23;36.00
49063;BME280;34876;51.464;-0.150;2022-07-23T09:54:25;101856.04;;;27.06;37.11
49063;BME280;34876;51.464;-0.150;2022-07-23T09:56:55;101849.13;;;27.40;36.40
49063;BME280;34876;51.464;-0.150;2022-07-23T09:59:27;101848.63;;;27.72;35.23
49063;BME280;34876;51.464;-0.150;2022-07-23T10:01:58;101848.69;;;27.93;35.13
49063;BME280;34876;51.464;-0.150;2022-07-23T10:04:29;101843.67;;;27.51;36.14
49063;BME280;34876;51.464;-0.150;2022-07-23T10:06:59;101840.68;;;27.53;34.36
49063;BME280;34876;51.464;-0.150;2022-07-23T10:09:32;101837.34;;;27.63;33.80
49063;BME280;34876;51.464;-0.150;2022-07-23T10:12:03;101834.90;;;27.62;35.77
49063;BME280;34876;51.464;-0.150;2022-07-23T10:14:33;101829.64;;;27.50;31.80
49063;BME280;34876;51.464;-0.150;2022-07-23T10:17:03;101831.49;;;27.48;35.95
49063;BME280;34876;51.464;-0.150;2022-07-23T10:19:34;101834.24;;;27.71;34.43
49063;BME280;34876;51.464;-0.150;2022-07-23T10:22:06;101837.68;;;27.57;31.70
49063;BME280;34876;51.464;-0.150;2022-07-23T10:24:49;101834.01;;;27.42;35.98
49063;BME280;34876;51.464;-0.150;2022-07-23T10:27:54;101840.45;;;27.78;34.43
49063;BME280;34876;51.464;-0.150;2022-07-23T10:30:33;101830.71;;;27.71;34.01
49063;BME280;34876;51.464;-0.150;2022-07-23T10:33:17;101826.45;;;27.78;35.33
49063;BME280;34876;51.464;-0.150;2022-07-23T10:35:58;101820.18;;;27.98;34.81
49063;BME280;34876;51.464;-0.150;2022-07-23T10:38:35;101824.00;;;27.71;35.52
49063;BME280;34876;51.464;-0.150;2022-07-23T10:41:06;101823.19;;;27.81;34.41
49063;BME280;34876;51.464;-0.150;2022-07-23T10:43:36;101826.15;;;27.89;34.59
49063;BME280;34876;51.464;-0.150;2022-07-23T10:46:23;101820.41;;;28.03;34.75
49063;BME280;34876;51.464;-0.150;2022-07-23T10:49:22;101815.53;;;28.26;31.24
49063;BME280;34876;51.464;-0.150;2022-07-23T10:52:26;101812.58;;;28.00;33.48
49063;BME280;34876;51.464;-0.150;2022-07-23T10:55:40;101813.47;;;27.87;34.54
49063;BME280;34876;51.464;-0.150;2022-07-23T10:58:10;101806.72;;;28.14;28.72
49063;BME280;34876;51.464;-0.150;2022-07-23T11:00:40;101805.51;;;27.85;34.81
49063;BME280;34876;51.464;-0.150;2022-07-23T11:03:30;101804.49;;;27.84;29.27
49063;BME280;34876;51.464;-0.150;2022-07-23T11:06:00;101804.39;;;28.38;30.85
49063;BME280;34876;51.464;-0.150;2022-07-23T11:08:30;101803.38;;;27.80;29.53
49063;BME280;34876;51.464;-0.150;2022-07-23T11:11:15;101805.67;;;27.77;34.78
49063;BME280;34876;51.464;-0.150;2022-07-23T11:13:47;101806.60;;;27.94;28.50
49063;BME280;34876;51.464;-0.150;2022-07-23T11:16:22;101804.32;;;27.94;30.00
49063;BME280;34876;51.464;-0.150;2022-07-23T11:18:56;101801.17;;;27.92;34.38
49063;BME280;34876;51.464;-0.150;2022-07-23T11:21:42;101809.79;;;27.69;35.21
49063;BME280;34876;51.464;-0.150;2022-07-23T11:24:14;101810.67;;;27.64;28.70
49063;BME280;34876;51.464;-0.150;2022-07-23T11:26:45;101811.08;;;27.54;26.86
49063;BME280;34876;51.464;-0.150;2022-07-23T11:29:48;101809.39;;;27.31;32.96
49063;BME280;34876;51.464;-0.150;2022-07-23T11:32:23;101802.50;;;27.48;27.67
49063;BME280;34876;51.464;-0.150;2022-07-23T11:34:54;101809.37;;;27.50;28.67
49063;BME280;34876;51.464;-0.150;2022-07-23T11:37:32;101804.22;;;27.61;28.83
49063;BME280;34876;51.464;-0.150;2022-07-23T11:40:06;101800.15;;;27.33;31.82
49063;BME280;34876;51.464;-0.150;2022-07-23T11:42:37;101795.56;;;27.44;35.39
49063;BME280;34876;51.464;-0.150;2022-07-23T11:45:09;101794.33;;;27.42;28.32
49063;BME280;34876;51.464;-0.150;2022-07-23T11:47:39;101795.46;;;27.41;35.55
49063;BME280;34876;51.464;-0.150;2022-07-23T11:50:09;101796.04;;;27.52;27.61
49063;BME280;34876;51.464;-0.150;2022-07-23T11:52:40;101787.78;;;27.65;27.60
49063;BME280;34876;51.464;-0.150;2022-07-23T11:55:11;101781.05;;;27.83;29.25
49063;BME280;34876;51.464;-0.150;2022-07-23T11:57:41;101778.76;;;27.42;26.90
49063;BME280;34876;51.464;-0.150;2022-07-23T12:00:14;101781.47;;;27.44;27.25
49063;BME280;34876;51.464;-0.150;2022-07-23T12:02:45;101783.18;;;27.52;28.22
49063;BME280;34876;51.464;-0.150;2022-07-23T12:05:16;101781.29;;;27.55;34.09
49063;BME280;34876;51.464;-0.150;2022-07-23T12:07:47;101777.91;;;27.59;30.49
49063;BME280;34876;51.464;-0.150;2022-07-23T12:10:19;101773.75;;;27.67;29.05
49063;BME280;34876;51.464;-0.150;2022-07-23T12:12:50;101775.85;;;27.43;28.78
49063;BME280;34876;51.464;-0.150;2022-07-23T12:15:23;101768.99;;;27.27;28.38
49063;BME280;34876;51.464;-0.150;2022-07-23T12:17:53;101771.74;;;27.30;34.60
49063;BME280;34876;51.464;-0.150;2022-07-23T12:20:24;101776.08;;;27.24;30.66
49063;BME280;34876;51.464;-0.150;2022-07-23T12:22:57;101778.31;;;27.36;28.04
49063;BME280;34876;51.464;-0.150;2022-07-23T12:25:28;101777.33;;;27.22;27.57
49063;BME280;34876;51.464;-0.150;2022-07-23T12:28:00;101769.58;;;27.34;32.33
49063;BME280;34876;51.464;-0.150;2022-07-23T12:30:33;101767.31;;;27.21;29.36
49063;BME280;34876;51.464;-0.150;2022-07-23T12:33:04;101765.25;;;27.38;26.36
49063;BME280;34876;51.464;-0.150;2022-07-23T12:35:37;101762.18;;;27.02;28.83
49063;BME280;34876;51.464;-0.150;2022-07-23T12:38:10;101763.16;;;27.20;28.58
49063;BME280;34876;51.464;-0.150;2022-07-23T12:40:43;101761.97;;;27.30;26.94
49063;BME280;34876;51.464;-0.150;2022-07-23T12:43:20;101762.93;;;27.07;32.46
49063;BME280;34876;51.464;-0.150;2022-07-23T12:45:53;101762.46;;;26.87;34.61
49063;BME280;34876;51.464;-0.150;2022-07-23T12:48:26;101763.48;;;27.16;27.63
49063;BME280;34876;51.464;-0.150;2022-07-23T12:50:58;101758.48;;;27.06;31.02
49063;BME280;34876;51.464;-0.150;2022-07-23T12:53:31;101756.46;;;27.07;28.71
49063;BME280;34876;51.464;-0.150;2022-07-23T12:56:04;101757.77;;;27.05;34.76
49063;BME280;34876;51.464;-0.150;2022-07-23T12:58:51;101749.47;;;27.25;28.36
49063;BME280;34876;51.464;-0.150;2022-07-23T13:01:24;101747.86;;;27.17;35.50
49063;BME280;34876;51.464;-0.150;2022-07-23T13:03:58;101743.77;;;27.38;29.09